sensor_id;sensor_type;location;lat;lon;timestamp;pressure;altitude;pressure_sealevel;temperature;humidity
29121;BME280;16191;49.548;8.658;2023-06-26T00:02:13;100272.06;;;22.53;62.44
29121;BME280;16191;49.548;8.658;2023-06-26T00:04:42;100267.03;;;22.50;62.74
29121;BME280;16191;49.548;8.658;2023-06-26T00:07:09;100267.19;;;22.49;62.85
29121;BME280;16191;49.548;8.658;2023-06-26T00:09:36;100273.03;;;22.43;63.83
29121;BME280;16191;49.548;8.658;2023-06-26T00:12:03;100264.50;;;22.39;63.69
29121;BME280;16191;49.548;8.658;2023-06-26T00:14:29;100269.81;;;22.39;63.89
29121;BME280;16191;49.548;8.658;2023-06-26T00:16:56;100267.69;;;22.33;63.52
29121;BME280;16191;49.548;8.658;2023-06-26T00:19:23;100266.00;;;22.32;64.28
29121;BME280;16191;49.548;8.658;2023-06-26T00:21:49;100265.03;;;22.23;64.59
29121;BME280;16191;49.548;8.658;2023-06-26T00:24:17;100268.53;;;22.24;64.71
29121;BME280;16191;49.548;8.658;2023-06-26T00:26:46;100266.69;;;22.15;65.62
29121;BME280;16191;49.548;8.658;2023-06-26T00:29:13;100266.81;;;22.13;65.54
29121;BME280;16191;49.548;8.658;2023-06-26T00:31:39;100265.41;;;22.09;65.69
29121;BME280;16191;49.548;8.658;2023-06-26T00:34:06;100265.41;;;22.09;65.50
29121;BME280;16191;49.548;8.658;2023-06-26T00:36:33;100266.22;;;22.00;66.25
29121;BME280;16191;49.548;8.658;2023-06-26T00:39:00;100266.72;;;21.94;67.01
29121;BME280;16191;49.548;8.658;2023-06-26T00:41:26;100260.91;;;22.00;66.80
29121;BME280;16191;49.548;8.658;2023-06-26T00:43:53;100264.47;;;21.89;67.22
29121;BME280;16191;49.548;8.658;2023-06-26T00:46:20;100260.00;;;21.90;67.46
29121;BME280;16191;49.548;8.658;2023-06-26T00:48:48;100264.66;;;21.67;69.34
29121;BME280;16191;49.548;8.658;2023-06-26T00:51:15;100259.94;;;21.71;69.65
29121;BME280;16191;49.548;8.658;2023-06-26T00:53:42;100264.03;;;21.54;71.09
29121;BME280;16191;49.548;8.658;2023-06-26T00:56:10;100259.34;;;21.67;70.11
29121;BME280;16191;49.548;8.658;2023-06-26T00:58:37;100258.69;;;21.75;69.68
29121;BME280;16191;49.548;8.658;2023-06-26T01:01:04;100250.97;;;21.62;69.84
29121;BME280;16191;49.548;8.658;2023-06-26T01:03:35;100252.25;;;21.47;71.74
29121;BME280;16191;49.548;8.658;2023-06-26T01:06:03;100250.06;;;21.52;71.26
29121;BME280;16191;49.548;8.658;2023-06-26T01:08:31;100250.94;;;21.32;73.51
29121;BME280;16191;49.548;8.658;2023-06-26T01:10:58;100254.66;;;21.50;72.10
29121;BME280;16191;49.548;8.658;2023-06-26T01:13:26;100249.69;;;21.36;73.45
29121;BME280;16191;49.548;8.658;2023-06-26T01:15:55;100248.13;;;21.12;76.69
29121;BME280;16191;49.548;8.658;2023-06-26T01:18:22;100245.28;;;21.04;76.49
29121;BME280;16191;49.548;8.658;2023-06-26T01:20:49;100243.91;;;21.21;75.03
29121;BME280;16191;49.548;8.658;2023-06-26T01:28:44;100229.94;;;21.29;72.76
29121;BME280;16191;49.548;8.658;2023-06-26T01:31:12;100230.41;;;21.34;72.80
29121;BME280;16191;49.548;8.658;2023-06-26T01:33:40;100224.00;;;21.36;73.08
29121;BME280;16191;49.548;8.658;2023-06-26T01:36:27;100218.22;;;21.22;73.63
29121;BME280;16191;49.548;8.658;2023-06-26T01:39:17;100218.09;;;21.12;74.57
29121;BME280;16191;49.548;8.658;2023-06-26T01:42:03;100216.03;;;21.15;74.33
29121;BME280;16191;49.548;8.658;2023-06-26T01:44:50;100212.16;;;20.99;75.98
29121;BME280;16191;49.548;8.658;2023-06-26T01:47:41;100215.31;;;20.93;76.89
29121;BME280;16191;49.548;8.658;2023-06-26T01:50:30;100209.91;;;20.94;77.75
29121;BME280;16191;49.548;8.658;2023-06-26T01:53:10;100211.63;;;20.84;78.87
29121;BME280;16191;49.548;8.658;2023-06-26T01:55:49;100212.34;;;20.86;78.24
29121;BME280;16191;49.548;8.658;2023-06-26T01:58:17;100217.16;;;20.60;81.40
29121;BME280;16191;49.548;8.658;2023-06-26T02:00:45;100222.47;;;20.60;81.03
29121;BME280;16191;49.548;8.658;2023-06-26T02:03:12;100217.97;;;20.72;80.27
29121;BME280;16191;49.548;8.658;2023-06-26T02:05:38;100220.06;;;20.57;81.88
29121;BME280;16191;49.548;8.658;2023-06-26T02:08:05;100221.00;;;20.67;81.28
29121;BME280;16191;49.548;8.658;2023-06-26T02:10:32;100217.28;;;20.59;82.15
29121;BME280;16191;49.548;8.658;2023-06-26T02:12:59;100218.97;;;20.60;81.82
29121;BME280;16191;49.548;8.658;2023-06-26T02:15:25;100225.13;;;20.60;81.34
29121;BME280;16191;49.548;8.658;2023-06-26T02:17:52;100218.00;;;20.61;81.52
29121;BME280;16191;49.548;8.658;2023-06-26T02:20:19;100225.25;;;20.59;82.01
29121;BME280;16191;49.548;8.658;2023-06-26T02:22:46;100225.53;;;20.56;82.64
29121;BME280;16191;49.548;8.658;2023-06-26T02:25:13;100226.50;;;20.55;82.96
29121;BME280;16191;49.548;8.658;2023-06-26T02:27:40;100223.63;;;20.46;82.80
29121;BME280;16191;49.548;8.658;2023-06-26T02:30:09;100230.97;;;20.43;83.07
29121;BME280;16191;49.548;8.658;2023-06-26T02:32:35;100234.59;;;20.42;84.00
29121;BME280;16191;49.548;8.658;2023-06-26T02:35:02;100234.72;;;20.40;84.34
29121;BME280;16191;49.548;8.658;2023-06-26T02:37:29;100230.50;;;20.38;85.06
29121;BME280;16191;49.548;8.658;2023-06-26T02:39:56;100237.38;;;20.29;85.60
29121;BME280;16191;49.548;8.658;2023-06-26T02:42:23;100234.25;;;20.24;87.13
29121;BME280;16191;49.548;8.658;2023-06-26T02:44:50;100237.25;;;20.31;85.82
29121;BME280;16191;49.548;8.658;2023-06-26T02:47:18;100238.59;;;20.25;86.49
29121;BME280;16191;49.548;8.658;2023-06-26T02:49:45;100237.28;;;20.19;86.98
29121;BME280;16191;49.548;8.658;2023-06-26T02:52:11;100231.78;;;20.11;87.81
29121;BME280;16191;49.548;8.658;2023-06-26T02:54:38;100234.06;;;20.05;89.31
29121;BME280;16191;49.548;8.658;2023-06-26T02:57:04;100237.56;;;20.05;89.06
29121;BME280;16191;49.548;8.658;2023-06-26T02:59:32;100241.53;;;20.00;89.49
29121;BME280;16191;49.548;8.658;2023-06-26T03:01:59;100236.47;;;19.97;90.32
29121;BME280;16191;49.548;8.658;2023-06-26T03:04:31;100238.41;;;19.95;90.32
29121;BME280;16191;49.548;8.658;2023-06-26T03:06:59;100237.66;;;19.93;90.74
29121;BME280;16191;49.548;8.658;2023-06-26T03:09:26;100234.22;;;19.81;92.20
29121;BME280;16191;49.548;8.658;2023-06-26T03:11:52;100240.22;;;19.83;91.99
29121;BME280;16191;49.548;8.658;2023-06-26T03:14:20;100240.94;;;19.85;92.26
29121;BME280;16191;49.548;8.658;2023-06-26T03:16:47;100248.53;;;19.78;93.43
29121;BME280;16191;49.548;8.658;2023-06-26T03:19:14;100253.81;;;19.78;92.70
29121;BME280;16191;49.548;8.658;2023-06-26T03:22:14;100245.78;;;19.69;94.35
29121;BME280;16191;49.548;8.658;2023-06-26T03:24:41;100248.06;;;19.62;94.31
29121;BME280;16191;49.548;8.658;2023-06-26T03:27:07;100250.72;;;19.62;94.57
29121;BME280;16191;49.548;8.658;2023-06-26T03:29:36;100244.56;;;19.62;94.04
29121;BME280;16191;49.548;8.658;2023-06-26T03:32:03;100245.19;;;19.65;94.72
29121;BME280;16191;49.548;8.658;2023-06-26T03:34:30;100251.91;;;19.58;94.82
29121;BME280;16191;49.548;8.658;2023-06-26T03:36:57;100254.06;;;19.53;96.73
29121;BME280;16191;49.548;8.658;2023-06-26T03:39:23;100251.16;;;19.56;95.59
29121;BME280;16191;49.548;8.658;2023-06-26T03:41:50;100248.03;;;19.51;96.32
29121;BME280;16191;49.548;8.658;2023-06-26T03:44:17;100247.53;;;19.46;97.10
29121;BME280;16191;49.548;8.658;2023-06-26T03:46:47;100244.91;;;19.46;97.07
29121;BME280;16191;49.548;8.658;2023-06-26T03:49:13;100246.47;;;19.48;97.03
29121;BME280;16191;49.548;8.658;2023-06-26T03:51:40;100241.06;;;19.50;97.58
29121;BME280;16191;49.548;8.658;2023-06-26T03:54:07;100245.13;;;19.43;97.81
29121;BME280;16191;49.548;8.658;2023-06-26T03:56:33;100252.81;;;19.35;98.94
29121;BME280;16191;49.548;8.658;2023-06-26T03:59:00;100254.84;;;19.31;100.00
29121;BME280;16191;49.548;8.658;2023-06-26T04:01:27;100252.06;;;19.33;100.00
29121;BME280;16191;49.548;8.658;2023-06-26T04:03:54;100256.53;;;19.21;100.00
29121;BME280;16191;49.548;8.658;2023-06-26T04:06:21;100252.91;;;19.22;100.00
29121;BME280;16191;49.548;8.658;2023-06-26T04:08:48;100257.88;;;19.27;100.00
29121;BME280;16191;49.548;8.658;2023-06-26T04:11:15;100246.91;;;19.31;100.00
29121;BME280;16191;49.548;8.658;2023-06-26T04:13:41;100254.50;;;19.25;100.00
29121;BME280;16191;49.548;8.658;2023-06-26T04:16:08;100248.34;;;19.24;100.00
29121;BME280;16191;49.548;8.658;2023-06-26T04:18:37;100262.53;;;19.23;100.00
29121;BME280;16191;49.548;8.658;2023-06-26T04:21:07;100267.94;;;19.22;100.00
29121;BME280;16191;49.548;8.658;2023-06-26T04:23:34;100263.16;;;19.27;100.00
29121;BME280;16191;49.548;8.658;2023-06-26T04:26:01;100268.31;;;19.28;100.00
29121;BME280;16191;49.548;8.658;2023-06-26T04:28:28;100273.25;;;19.33;100.00
29121;BME280;16191;49.548;8.658;2023-06-26T04:30:55;100259.16;;;19.32;100.00
29121;BME280;16191;49.548;8.658;2023-06-26T04:33:22;100256.19;;;19.37;100.00
29121;BME280;16191;49.548;8.658;2023-06-26T04:35:49;100255.69;;;19.32;100.00
29121;BME280;16191;49.548;8.658;2023-06-26T04:38:16;100257.13;;;19.36;100.00
29121;BME280;16191;49.548;8.658;2023-06-26T04:40:43;100253.66;;;19.35;100.00
29121;BME280;16191;49.548;8.658;2023-06-26T04:43:09;100257.03;;;19.37;100.00
29121;BME280;16191;49.548;8.658;2023-06-26T04:45:36;100260.88;;;19.44;100.00
29121;BME280;16191;49.548;8.658;2023-06-26T04:48:03;100246.47;;;19.48;100.00
29121;BME280;16191;49.548;8.658;2023-06-26T04:50:30;100248.88;;;19.51;100.00
29121;BME280;16191;49.548;8.658;2023-06-26T04:52:57;100246.22;;;19.51;100.00
29121;BME280;16191;49.548;8.658;2023-06-26T04:55:24;100250.72;;;19.62;100.00
29121;BME280;16191;49.548;8.658;2023-06-26T04:57:51;100246.13;;;19.64;100.00
29121;BME280;16191;49.548;8.658;2023-06-26T05:00:18;100248.41;;;19.80;99.53
29121;BME280;16191;49.548;8.658;2023-06-26T05:02:45;100252.25;;;19.87;99.38
29121;BME280;16191;49.548;8.658;2023-06-26T05:05:11;100241.44;;;19.90;99.09
29121;BME280;16191;49.548;8.658;2023-06-26T05:07:38;100240.56;;;20.01;97.92
29121;BME280;16191;49.548;8.658;2023-06-26T05:10:05;100244.88;;;20.13;96.49
29121;BME280;16191;49.548;8.658;2023-06-26T05:12:32;100243.53;;;20.18;95.84
29121;BME280;16191;49.548;8.658;2023-06-26T05:14:58;100247.97;;;20.29;95.63
29121;BME280;16191;49.548;8.658;2023-06-26T05:17:25;100249.41;;;20.44;96.08
29121;BME280;16191;49.548;8.658;2023-06-26T05:19:51;100252.28;;;20.52;97.43
29121;BME280;16191;49.548;8.658;2023-06-26T05:22:19;100245.75;;;20.57;99.29
29121;BME280;16191;49.548;8.658;2023-06-26T05:24:46;100241.25;;;20.68;99.81
29121;BME280;16191;49.548;8.658;2023-06-26T05:27:13;100243.28;;;20.76;97.23
29121;BME280;16191;49.548;8.658;2023-06-26T05:29:48;100246.06;;;20.74;94.87
29121;BME280;16191;49.548;8.658;2023-06-26T05:32:16;100259.38;;;20.84;94.00
29121;BME280;16191;49.548;8.658;2023-06-26T05:34:47;100250.84;;;21.01;93.50
29121;BME280;16191;49.548;8.658;2023-06-26T05:37:21;100253.78;;;20.98;92.25
29121;BME280;16191;49.548;8.658;2023-06-26T05:39:49;100253.91;;;20.97;92.37
29121;BME280;16191;49.548;8.658;2023-06-26T05:42:16;100252.81;;;20.99;90.59
29121;BME280;16191;49.548;8.658;2023-06-26T05:44:42;100251.38;;;21.16;90.34
29121;BME280;16191;49.548;8.658;2023-06-26T05:47:09;100260.13;;;21.28;90.33
29121;BME280;16191;49.548;8.658;2023-06-26T05:49:36;100252.53;;;21.23;89.25
29121;BME280;16191;49.548;8.658;2023-06-26T05:52:03;100253.47;;;21.33;89.47
29121;BME280;16191;49.548;8.658;2023-06-26T05:54:30;100258.19;;;21.30;89.11
29121;BME280;16191;49.548;8.658;2023-06-26T05:56:57;100259.47;;;21.35;89.99
29121;BME280;16191;49.548;8.658;2023-06-26T05:59:27;100256.28;;;21.62;89.26
29121;BME280;16191;49.548;8.658;2023-06-26T06:01:54;100256.28;;;21.72;87.81
29121;BME280;16191;49.548;8.658;2023-06-26T06:04:20;100253.19;;;21.67;85.87
29121;BME280;16191;49.548;8.658;2023-06-26T06:06:47;100251.81;;;21.72;85.25
29121;BME280;16191;49.548;8.658;2023-06-26T06:09:14;100245.69;;;22.02;80.17
29121;BME280;16191;49.548;8.658;2023-06-26T06:11:41;100245.31;;;22.26;75.83
29121;BME280;16191;49.548;8.658;2023-06-26T06:14:07;100238.44;;;22.33;72.05
29121;BME280;16191;49.548;8.658;2023-06-26T06:16:34;100243.38;;;22.57;71.74
29121;BME280;16191;49.548;8.658;2023-06-26T06:19:01;100249.66;;;22.75;67.97
29121;BME280;16191;49.548;8.658;2023-06-26T06:21:29;100263.00;;;22.66;68.73
29121;BME280;16191;49.548;8.658;2023-06-26T06:23:56;100261.88;;;22.97;65.19
29121;BME280;16191;49.548;8.658;2023-06-26T06:26:23;100268.03;;;23.07;64.28
29121;BME280;16191;49.548;8.658;2023-06-26T06:28:50;100260.72;;;23.19;63.45
29121;BME280;16191;49.548;8.658;2023-06-26T06:31:16;100257.06;;;23.20;63.78
29121;BME280;16191;49.548;8.658;2023-06-26T06:33:43;100258.75;;;23.21;62.57
29121;BME280;16191;49.548;8.658;2023-06-26T06:36:09;100264.53;;;23.16;62.63
29121;BME280;16191;49.548;8.658;2023-06-26T06:38:36;100271.66;;;23.25;62.47
29121;BME280;16191;49.548;8.658;2023-06-26T06:41:03;100251.25;;;23.63;61.88
29121;BME280;16191;49.548;8.658;2023-06-26T06:43:29;100251.44;;;23.52;60.75
29121;BME280;16191;49.548;8.658;2023-06-26T06:45:56;100252.25;;;23.43;61.15
29121;BME280;16191;49.548;8.658;2023-06-26T06:48:22;100245.47;;;23.68;60.25
29121;BME280;16191;49.548;8.658;2023-06-26T06:50:49;100246.84;;;23.81;59.32
29121;BME280;16191;49.548;8.658;2023-06-26T06:53:16;100241.50;;;23.81;59.20
29121;BME280;16191;49.548;8.658;2023-06-26T06:55:42;100237.69;;;23.84;59.09
29121;BME280;16191;49.548;8.658;2023-06-26T06:58:09;100244.13;;;23.91;58.37
29121;BME280;16191;49.548;8.658;2023-06-26T07:00:35;100228.72;;;23.85;58.92
29121;BME280;16191;49.548;8.658;2023-06-26T07:03:02;100237.19;;;24.25;57.85
29121;BME280;16191;49.548;8.658;2023-06-26T07:05:29;100247.75;;;24.45;58.25
29121;BME280;16191;49.548;8.658;2023-06-26T07:07:56;100234.03;;;24.40;57.49
29121;BME280;16191;49.548;8.658;2023-06-26T07:10:26;100231.81;;;24.53;57.84
29121;BME280;16191;49.548;8.658;2023-06-26T07:12:53;100231.59;;;24.46;57.44
29121;BME280;16191;49.548;8.658;2023-06-26T07:15:19;100232.19;;;24.40;57.60
29121;BME280;16191;49.548;8.658;2023-06-26T07:17:46;100250.56;;;24.79;57.67
29121;BME280;16191;49.548;8.658;2023-06-26T07:20:13;100241.28;;;24.65;57.42
29121;BME280;16191;49.548;8.658;2023-06-26T07:22:42;100242.63;;;24.51;57.38
29121;BME280;16191;49.548;8.658;2023-06-26T07:25:11;100261.31;;;24.87;56.88
29121;BME280;16191;49.548;8.658;2023-06-26T07:27:38;100234.63;;;24.69;57.08
29121;BME280;16191;49.548;8.658;2023-06-26T07:30:05;100221.44;;;25.03;56.97
29121;BME280;16191;49.548;8.658;2023-06-26T07:32:32;100224.88;;;25.21;55.86
29121;BME280;16191;49.548;8.658;2023-06-26T07:34:59;100227.31;;;25.33;55.72
29121;BME280;16191;49.548;8.658;2023-06-26T07:37:25;100237.56;;;25.19;55.60
29121;BME280;16191;49.548;8.658;2023-06-26T07:39:52;100237.56;;;25.45;55.24
29121;BME280;16191;49.548;8.658;2023-06-26T07:42:19;100231.63;;;25.59;54.76
29121;BME280;16191;49.548;8.658;2023-06-26T07:44:46;100229.53;;;25.45;54.24
29121;BME280;16191;49.548;8.658;2023-06-26T07:47:12;100231.00;;;25.66;53.97
29121;BME280;16191;49.548;8.658;2023-06-26T07:49:39;100225.72;;;25.82;54.17
29121;BME280;16191;49.548;8.658;2023-06-26T07:52:07;100235.63;;;25.89;53.66
29121;BME280;16191;49.548;8.658;2023-06-26T07:54:36;100239.72;;;26.10;53.62
29121;BME280;16191;49.548;8.658;2023-06-26T07:57:05;100227.53;;;26.15;53.59
29121;BME280;16191;49.548;8.658;2023-06-26T07:59:35;100230.72;;;26.27;52.86
29121;BME280;16191;49.548;8.658;2023-06-26T08:02:03;100229.03;;;26.18;53.09
29121;BME280;16191;49.548;8.658;2023-06-26T08:04:30;100234.13;;;26.45;52.82
29121;BME280;16191;49.548;8.658;2023-06-26T08:07:00;100233.47;;;26.51;52.84
29121;BME280;16191;49.548;8.658;2023-06-26T08:09:29;100235.47;;;26.41;53.07
29121;BME280;16191;49.548;8.658;2023-06-26T08:11:56;100240.34;;;26.54;52.21
29121;BME280;16191;49.548;8.658;2023-06-26T08:14:23;100242.19;;;26.53;52.88
29121;BME280;16191;49.548;8.658;2023-06-26T08:16:50;100232.63;;;26.67;52.56
29121;BME280;16191;49.548;8.658;2023-06-26T08:19:17;100238.69;;;26.93;51.74
29121;BME280;16191;49.548;8.658;2023-06-26T08:21:45;100244.56;;;26.97;51.38
29121;BME280;16191;49.548;8.658;2023-06-26T08:24:12;100244.53;;;27.21;51.38
29121;BME280;16191;49.548;8.658;2023-06-26T08:26:45;100249.38;;;27.42;51.05
29121;BME280;16191;49.548;8.658;2023-06-26T08:29:12;100248.50;;;27.58;50.63
29121;BME280;16191;49.548;8.658;2023-06-26T08:31:40;100248.81;;;27.71;49.71
29121;BME280;16191;49.548;8.658;2023-06-26T08:34:07;100247.59;;;27.74;49.52
29121;BME280;16191;49.548;8.658;2023-06-26T08:36:34;100240.56;;;27.73;48.44
29121;BME280;16191;49.548;8.658;2023-06-26T08:39:01;100243.13;;;28.05;48.10
29121;BME280;16191;49.548;8.658;2023-06-26T08:41:28;100244.53;;;28.32;47.53
29121;BME280;16191;49.548;8.658;2023-06-26T08:43:54;100251.13;;;28.21;47.67
29121;BME280;16191;49.548;8.658;2023-06-26T08:46:21;100253.06;;;28.36;47.64
29121;BME280;16191;49.548;8.658;2023-06-26T08:48:56;100245.28;;;28.41;46.07
29121;BME280;16191;49.548;8.658;2023-06-26T08:51:24;100261.50;;;28.24;46.67
29121;BME280;16191;49.548;8.658;2023-06-26T08:53:59;100260.50;;;28.25;45.57
29121;BME280;16191;49.548;8.658;2023-06-26T08:56:37;100259.06;;;28.07;46.36
29121;BME280;16191;49.548;8.658;2023-06-26T08:59:07;100255.78;;;28.27;46.68
29121;BME280;16191;49.548;8.658;2023-06-26T09:01:34;100262.31;;;28.33;46.23
29121;BME280;16191;49.548;8.658;2023-06-26T09:04:01;100257.16;;;28.46;45.38
29121;BME280;16191;49.548;8.658;2023-06-26T09:06:28;100265.06;;;28.48;44.95
29121;BME280;16191;49.548;8.658;2023-06-26T09:08:55;100265.84;;;28.79;44.67
29121;BME280;16191;49.548;8.658;2023-06-26T09:11:22;100270.28;;;28.95;44.70
29121;BME280;16191;49.548;8.658;2023-06-26T09:13:48;100269.22;;;29.19;44.51
29121;BME280;16191;49.548;8.658;2023-06-26T09:16:15;100260.63;;;29.38;43.52
29121;BME280;16191;49.548;8.658;2023-06-26T09:18:42;100262.72;;;29.13;44.02
29121;BME280;16191;49.548;8.658;2023-06-26T09:21:09;100264.75;;;28.65;44.86
29121;BME280;16191;49.548;8.658;2023-06-26T09:23:36;100261.66;;;29.22;44.13
29121;BME280;16191;49.548;8.658;2023-06-26T09:26:05;100263.00;;;29.56;43.91
29121;BME280;16191;49.548;8.658;2023-06-26T09:28:32;100257.72;;;29.10;43.87
29121;BME280;16191;49.548;8.658;2023-06-26T09:31:04;100251.13;;;29.65;43.52
29121;BME280;16191;49.548;8.658;2023-06-26T09:33:38;100259.00;;;29.81;42.31
29121;BME280;16191;49.548;8.658;2023-06-26T09:36:09;100264.56;;;29.80;41.53
29121;BME280;16191;49.548;8.658;2023-06-26T09:38:44;100250.53;;;30.50;40.46
29121;BME280;16191;49.548;8.658;2023-06-26T09:41:11;100257.44;;;30.38;40.06
29121;BME280;16191;49.548;8.658;2023-06-26T09:43:47;100262.09;;;30.86;39.64
29121;BME280;16191;49.548;8.658;2023-06-26T09:46:25;100264.94;;;30.42;40.24
29121;BME280;16191;49.548;8.658;2023-06-26T09:49:11;100263.66;;;30.95;39.43
29121;BME280;16191;49.548;8.658;2023-06-26T09:51:40;100266.50;;;30.51;38.67
29121;BME280;16191;49.548;8.658;2023-06-26T09:54:09;100257.56;;;30.65;38.19
29121;BME280;16191;49.548;8.658;2023-06-26T09:56:36;100262.09;;;30.86;38.77
29121;BME280;16191;49.548;8.658;2023-06-26T09:59:04;100262.47;;;30.83;38.57
29121;BME280;16191;49.548;8.658;2023-06-26T10:01:32;100260.53;;;31.20;38.25
29121;BME280;16191;49.548;8.658;2023-06-26T10:03:59;100274.09;;;30.84;38.51
29121;BME280;16191;49.548;8.658;2023-06-26T10:06:46;100268.63;;;31.20;37.84
29121;BME280;16191;49.548;8.658;2023-06-26T10:09:16;100258.41;;;30.30;39.04
29121;BME280;16191;49.548;8.658;2023-06-26T10:11:53;100255.31;;;31.12;38.35
29121;BME280;16191;49.548;8.658;2023-06-26T10:14:22;100261.38;;;30.99;38.64
29121;BME280;16191;49.548;8.658;2023-06-26T10:16:51;100259.41;;;30.65;38.43
29121;BME280;16191;49.548;8.658;2023-06-26T10:19:19;100247.19;;;30.26;39.26
29121;BME280;16191;49.548;8.658;2023-06-26T10:21:55;100256.19;;;30.76;39.15
29121;BME280;16191;49.548;8.658;2023-06-26T10:24:23;100245.78;;;30.52;39.01
29121;BME280;16191;49.548;8.658;2023-06-26T10:26:53;100250.47;;;30.43;39.58
29121;BME280;16191;49.548;8.658;2023-06-26T10:29:24;100247.00;;;30.13;40.82
29121;BME280;16191;49.548;8.658;2023-06-26T10:31:56;100250.38;;;30.00;40.74
29121;BME280;16191;49.548;8.658;2023-06-26T10:34:23;100254.16;;;30.42;40.02
29121;BME280;16191;49.548;8.658;2023-06-26T10:37:01;100256.50;;;31.09;39.52
29121;BME280;16191;49.548;8.658;2023-06-26T10:39:45;100253.69;;;30.96;39.71
29121;BME280;16191;49.548;8.658;2023-06-26T10:42:19;100262.16;;;30.93;40.15
29121;BME280;16191;49.548;8.658;2023-06-26T10:44:47;100253.84;;;30.66;40.14
29121;BME280;16191;49.548;8.658;2023-06-26T10:47:30;100265.91;;;31.20;40.08
29121;BME280;16191;49.548;8.658;2023-06-26T10:53:12;100277.59;;;31.27;40.99
29121;BME280;16191;49.548;8.658;2023-06-26T10:55:56;100276.59;;;30.64;41.54
29121;BME280;16191;49.548;8.658;2023-06-26T10:58:29;100277.13;;;30.74;41.46
29121;BME280;16191;49.548;8.658;2023-06-26T11:03:49;100280.94;;;31.08;41.33
29121;BME280;16191;49.548;8.658;2023-06-26T11:06:20;100283.69;;;31.35;40.35
29121;BME280;16191;49.548;8.658;2023-06-26T11:11:16;100274.84;;;31.76;39.37
29121;BME280;16191;49.548;8.658;2023-06-26T11:13:45;100278.19;;;31.50;40.04
29121;BME280;16191;49.548;8.658;2023-06-26T11:16:12;100278.38;;;30.99;41.28
29121;BME280;16191;49.548;8.658;2023-06-26T11:18:41;100268.81;;;31.74;39.37
29121;BME280;16191;49.548;8.658;2023-06-26T11:21:09;100265.88;;;32.17;38.34
29121;BME280;16191;49.548;8.658;2023-06-26T11:23:37;100276.66;;;31.13;39.65
29121;BME280;16191;49.548;8.658;2023-06-26T11:26:17;100277.22;;;31.30;39.74
29121;BME280;16191;49.548;8.658;2023-06-26T11:28:53;100276.06;;;30.75;40.45
29121;BME280;16191;49.548;8.658;2023-06-26T11:31:25;100269.66;;;31.47;39.46
29121;BME280;16191;49.548;8.658;2023-06-26T11:33:53;100269.16;;;32.60;38.58
29121;BME280;16191;49.548;8.658;2023-06-26T11:36:23;100272.97;;;33.45;36.79
29121;BME280;16191;49.548;8.658;2023-06-26T11:38:55;100274.47;;;32.33;37.32
29121;BME280;16191;49.548;8.658;2023-06-26T11:41:28;100265.97;;;32.36;37.99
29121;BME280;16191;49.548;8.658;2023-06-26T11:43:55;100268.72;;;32.43;37.55
29121;BME280;16191;49.548;8.658;2023-06-26T11:46:22;100270.50;;;32.29;38.06
29121;BME280;16191;49.548;8.658;2023-06-26T11:48:49;100269.00;;;33.14;37.30
29121;BME280;16191;49.548;8.658;2023-06-26T11:51:16;100272.06;;;33.84;35.83
29121;BME280;16191;49.548;8.658;2023-06-26T11:53:44;100266.75;;;34.09;35.86
29121;BME280;16191;49.548;8.658;2023-06-26T11:56:12;100265.19;;;33.75;35.90
29121;BME280;16191;49.548;8.658;2023-06-26T12:01:35;100281.91;;;32.99;36.44
29121;BME280;16191;49.548;8.658;2023-06-26T12:04:04;100266.63;;;32.45;37.98
29121;BME280;16191;49.548;8.658;2023-06-26T12:06:36;100254.75;;;33.98;35.39
29121;BME280;16191;49.548;8.658;2023-06-26T12:09:10;100251.75;;;32.82;36.37
29121;BME280;16191;49.548;8.658;2023-06-26T12:11:40;100287.72;;;33.49;35.07
29121;BME280;16191;49.548;8.658;2023-06-26T12:14:07;100267.63;;;31.90;36.07
29121;BME280;16191;49.548;8.658;2023-06-26T12:16:35;100262.09;;;32.59;36.02
29121;BME280;16191;49.548;8.658;2023-06-26T12:19:03;100271.09;;;33.19;35.14
29121;BME280;16191;49.548;8.658;2023-06-26T12:24:04;100269.38;;;32.65;32.79
29121;BME280;16191;49.548;8.658;2023-06-26T12:26:31;100258.13;;;33.67;32.01
29121;BME280;16191;49.548;8.658;2023-06-26T12:29:06;100272.53;;;33.34;32.51
29121;BME280;16191;49.548;8.658;2023-06-26T12:31:33;100272.34;;;33.10;33.24
29121;BME280;16191;49.548;8.658;2023-06-26T12:34:00;100271.00;;;32.46;34.22
29121;BME280;16191;49.548;8.658;2023-06-26T12:36:27;100261.09;;;33.39;33.18
29121;BME280;16191;49.548;8.658;2023-06-26T12:38:54;100257.38;;;32.81;32.75
29121;BME280;16191;49.548;8.658;2023-06-26T12:41:24;100262.53;;;32.69;32.53
29121;BME280;16191;49.548;8.658;2023-06-26T12:43:55;100255.47;;;33.54;30.98
29121;BME280;16191;49.548;8.658;2023-06-26T12:46:36;100266.03;;;32.63;32.40
29121;BME280;16191;49.548;8.658;2023-06-26T12:49:02;100267.72;;;33.56;30.76
29121;BME280;16191;49.548;8.658;2023-06-26T12:51:37;100268.03;;;33.99;29.61
29121;BME280;16191;49.548;8.658;2023-06-26T12:54:04;100283.41;;;33.28;30.10
29121;BME280;16191;49.548;8.658;2023-06-26T12:56:31;100274.63;;;33.52;29.65
29121;BME280;16191;49.548;8.658;2023-06-26T12:58:58;100272.13;;;32.98;30.03
29121;BME280;16191;49.548;8.658;2023-06-26T13:01:24;100273.72;;;32.46;29.81
29121;BME280;16191;49.548;8.658;2023-06-26T13:03:51;100258.56;;;32.71;29.02
29121;BME280;16191;49.548;8.658;2023-06-26T13:06:18;100261.72;;;33.15;28.91
29121;BME280;16191;49.548;8.658;2023-06-26T13:08:45;100263.81;;;32.80;29.15
29121;BME280;16191;49.548;8.658;2023-06-26T13:11:12;100260.09;;;34.04;28.49
29121;BME280;16191;49.548;8.658;2023-06-26T13:13:38;100265.59;;;33.78;27.82
29121;BME280;16191;49.548;8.658;2023-06-26T13:16:05;100263.81;;;33.19;28.50
29121;BME280;16191;49.548;8.658;2023-06-26T13:18:31;100260.72;;;34.07;27.86